sensor_id;sensor_type;location;lat;lon;timestamp;P1;durP1;ratioP1;P2;durP2;ratioP2
7675;SDS011;3880;51.464;-2.566;2022-12-20T00:01:55;9.67;;;2.90;;
7675;SDS011;3880;51.464;-2.566;2022-12-20T00:04:22;21.67;;;4.90;;
7675;SDS011;3880;51.464;-2.566;2022-12-20T00:06:49;14.20;;;3.43;;
7675;SDS011;3880;51.464;-2.566;2022-12-20T00:09:17;10.63;;;2.60;;
7675;SDS011;3880;51.464;-2.566;2022-12-20T00:11:44;11.73;;;2.43;;
7675;SDS011;3880;51.464;-2.566;2022-12-20T00:14:11;8.17;;;2.40;;
7675;SDS011;3880;51.464;-2.566;2022-12-20T00:16:38;10.27;;;2.73;;
7675;SDS011;3880;51.464;-2.566;2022-12-20T00:19:05;11.73;;;2.33;;
7675;SDS011;3880;51.464;-2.566;2022-12-20T00:21:33;5.90;;;2.00;;
7675;SDS011;3880;51.464;-2.566;2022-12-20T00:24:01;9.17;;;2.70;;
7675;SDS011;3880;51.464;-2.566;2022-12-20T00:26:31;9.27;;;2.57;;
7675;SDS011;3880;51.464;-2.566;2022-12-20T00:28:59;13.73;;;3.60;;
7675;SDS011;3880;51.464;-2.566;2022-12-20T00:31:27;13.53;;;2.73;;
7675;SDS011;3880;51.464;-2.566;2022-12-20T00:33:56;10.17;;;3.33;;
7675;SDS011;3880;51.464;-2.566;2022-12-20T00:36:24;13.90;;;2.67;;
7675;SDS011;3880;51.464;-2.566;2022-12-20T00:38:53;12.77;;;3.50;;
7675;SDS011;3880;51.464;-2.566;2022-12-20T00:41:21;13.87;;;3.60;;
7675;SDS011;3880;51.464;-2.566;2022-12-20T00:43:51;14.97;;;3.60;;
7675;SDS011;3880;51.464;-2.566;2022-12-20T00:46:18;17.93;;;4.40;;
7675;SDS011;3880;51.464;-2.566;2022-12-20T00:48:47;7.93;;;2.93;;
7675;SDS011;3880;51.464;-2.566;2022-12-20T00:51:16;22.07;;;5.17;;
7675;SDS011;3880;51.464;-2.566;2022-12-20T00:53:44;17.83;;;4.17;;
7675;SDS011;3880;51.464;-2.566;2022-12-20T00:56:12;17.10;;;3.93;;
7675;SDS011;3880;51.464;-2.566;2022-12-20T00:58:40;8.03;;;2.37;;
7675;SDS011;3880;51.464;-2.566;2022-12-20T01:01:16;10.60;;;2.60;;
7675;SDS011;3880;51.464;-2.566;2022-12-20T01:03:45;12.37;;;2.57;;
7675;SDS011;3880;51.464;-2.566;2022-12-20T01:06:12;12.27;;;3.73;;
7675;SDS011;3880;51.464;-2.566;2022-12-20T01:08:39;15.10;;;2.80;;
7675;SDS011;3880;51.464;-2.566;2022-12-20T01:11:07;10.47;;;2.53;;
7675;SDS011;3880;51.464;-2.566;2022-12-20T01:13:38;4.27;;;1.57;;
7675;SDS011;3880;51.464;-2.566;2022-12-20T01:16:06;5.37;;;1.60;;
7675;SDS011;3880;51.464;-2.566;2022-12-20T01:18:37;3.03;;;1.50;;
7675;SDS011;3880;51.464;-2.566;2022-12-20T01:21:04;1.40;;;1.00;;
7675;SDS011;3880;51.464;-2.566;2022-12-20T01:23:33;2.77;;;1.17;;
7675;SDS011;3880;51.464;-2.566;2022-12-20T01:26:01;1.00;;;1.00;;
7675;SDS011;3880;51.464;-2.566;2022-12-20T01:28:30;1.10;;;1.10;;
7675;SDS011;3880;51.464;-2.566;2022-12-20T01:30:57;2.10;;;1.00;;
7675;SDS011;3880;51.464;-2.566;2022-12-20T01:33:24;1.93;;;0.90;;
7675;SDS011;3880;51.464;-2.566;2022-12-20T01:35:57;1.30;;;1.17;;
7675;SDS011;3880;51.464;-2.566;2022-12-20T01:38:25;1.13;;;1.00;;
7675;SDS011;3880;51.464;-2.566;2022-12-20T01:40:53;1.30;;;1.10;;
7675;SDS011;3880;51.464;-2.566;2022-12-20T01:43:21;2.77;;;1.50;;
7675;SDS011;3880;51.464;-2.566;2022-12-20T01:45:50;1.73;;;1.40;;
7675;SDS011;3880;51.464;-2.566;2022-12-20T01:48:19;1.47;;;1.37;;
7675;SDS011;3880;51.464;-2.566;2022-12-20T01:50:50;1.10;;;1.10;;
7675;SDS011;3880;51.464;-2.566;2022-12-20T01:53:20;1.07;;;1.07;;
7675;SDS011;3880;51.464;-2.566;2022-12-20T01:55:49;2.13;;;1.10;;
7675;SDS011;3880;51.464;-2.566;2022-12-20T01:58:17;1.80;;;1.57;;
7675;SDS011;3880;51.464;-2.566;2022-12-20T02:00:45;1.97;;;1.50;;
7675;SDS011;3880;51.464;-2.566;2022-12-20T02:03:13;1.40;;;1.30;;
7675;SDS011;3880;51.464;-2.566;2022-12-20T02:05:42;1.30;;;1.30;;
7675;SDS011;3880;51.464;-2.566;2022-12-20T02:08:11;1.30;;;1.20;;
7675;SDS011;3880;51.464;-2.566;2022-12-20T02:10:46;1.10;;;1.00;;
7675;SDS011;3880;51.464;-2.566;2022-12-20T02:13:26;1.73;;;1.40;;
7675;SDS011;3880;51.464;-2.566;2022-12-20T02:16:01;1.30;;;1.20;;
7675;SDS011;3880;51.464;-2.566;2022-12-20T02:18:30;1.30;;;1.30;;
7675;SDS011;3880;51.464;-2.566;2022-12-20T02:21:07;1.90;;;1.50;;
7675;SDS011;3880;51.464;-2.566;2022-12-20T02:24:04;1.53;;;1.43;;
7675;SDS011;3880;51.464;-2.566;2022-12-20T02:27:01;1.83;;;1.73;;
7675;SDS011;3880;51.464;-2.566;2022-12-20T02:30:01;1.47;;;1.40;;
7675;SDS011;3880;51.464;-2.566;2022-12-20T02:32:41;3.07;;;1.60;;
7675;SDS011;3880;51.464;-2.566;2022-12-20T02:35:14;2.67;;;1.60;;
7675;SDS011;3880;51.464;-2.566;2022-12-20T02:37:48;3.10;;;1.40;;
7675;SDS011;3880;51.464;-2.566;2022-12-20T02:40:16;1.63;;;1.53;;
7675;SDS011;3880;51.464;-2.566;2022-12-20T02:42:46;4.20;;;1.67;;
7675;SDS011;3880;51.464;-2.566;2022-12-20T02:45:17;3.33;;;2.00;;
7675;SDS011;3880;51.464;-2.566;2022-12-20T02:47:48;1.73;;;1.60;;
7675;SDS011;3880;51.464;-2.566;2022-12-20T02:50:19;1.30;;;1.20;;
7675;SDS011;3880;51.464;-2.566;2022-12-20T02:52:48;1.10;;;1.10;;
7675;SDS011;3880;51.464;-2.566;2022-12-20T02:55:16;0.90;;;0.90;;
7675;SDS011;3880;51.464;-2.566;2022-12-20T02:57:49;1.27;;;1.17;;
7675;SDS011;3880;51.464;-2.566;2022-12-20T03:00:22;1.30;;;1.20;;
7675;SDS011;3880;51.464;-2.566;2022-12-20T03:02:50;1.20;;;1.10;;
7675;SDS011;3880;51.464;-2.566;2022-12-20T03:05:36;1.30;;;1.20;;
7675;SDS011;3880;51.464;-2.566;2022-12-20T03:08:10;1.30;;;1.20;;
7675;SDS011;3880;51.464;-2.566;2022-12-20T03:10:37;3.27;;;1.40;;
7675;SDS011;3880;51.464;-2.566;2022-12-20T03:13:04;3.37;;;1.27;;
7675;SDS011;3880;51.464;-2.566;2022-12-20T03:15:32;1.83;;;1.17;;
7675;SDS011;3880;51.464;-2.566;2022-12-20T03:17:59;1.77;;;1.23;;
7675;SDS011;3880;51.464;-2.566;2022-12-20T03:20:27;1.20;;;1.20;;
7675;SDS011;3880;51.464;-2.566;2022-12-20T03:22:54;2.07;;;1.30;;
7675;SDS011;3880;51.464;-2.566;2022-12-20T03:25:21;1.40;;;1.00;;
7675;SDS011;3880;51.464;-2.566;2022-12-20T03:27:48;1.53;;;1.17;;
7675;SDS011;3880;51.464;-2.566;2022-12-20T03:30:15;2.80;;;1.20;;
7675;SDS011;3880;51.464;-2.566;2022-12-20T03:32:43;2.37;;;0.90;;
7675;SDS011;3880;51.464;-2.566;2022-12-20T03:35:10;1.17;;;1.07;;
7675;SDS011;3880;51.464;-2.566;2022-12-20T03:37:37;0.83;;;0.83;;
7675;SDS011;3880;51.464;-2.566;2022-12-20T03:40:05;0.77;;;0.77;;
7675;SDS011;3880;51.464;-2.566;2022-12-20T03:42:33;2.57;;;0.90;;
7675;SDS011;3880;51.464;-2.566;2022-12-20T03:45:00;1.80;;;0.90;;
7675;SDS011;3880;51.464;-2.566;2022-12-20T03:47:27;1.50;;;1.07;;
7675;SDS011;3880;51.464;-2.566;2022-12-20T03:49:55;1.90;;;1.10;;
7675;SDS011;3880;51.464;-2.566;2022-12-20T03:52:22;4.47;;;1.87;;
7675;SDS011;3880;51.464;-2.566;2022-12-20T03:54:49;5.20;;;1.30;;
7675;SDS011;3880;51.464;-2.566;2022-12-20T03:57:16;2.17;;;1.13;;
7675;SDS011;3880;51.464;-2.566;2022-12-20T03:59:43;2.83;;;1.20;;
7675;SDS011;3880;51.464;-2.566;2022-12-20T04:02:10;5.30;;;1.43;;
7675;SDS011;3880;51.464;-2.566;2022-12-20T04:04:37;6.27;;;1.33;;
7675;SDS011;3880;51.464;-2.566;2022-12-20T04:07:06;1.70;;;1.20;;
7675;SDS011;3880;51.464;-2.566;2022-12-20T04:09:33;4.67;;;2.30;;
7675;SDS011;3880;51.464;-2.566;2022-12-20T04:12:00;1.93;;;1.20;;
7675;SDS011;3880;51.464;-2.566;2022-12-20T04:14:28;1.33;;;1.20;;
7675;SDS011;3880;51.464;-2.566;2022-12-20T04:16:55;2.30;;;1.20;;
7675;SDS011;3880;51.464;-2.566;2022-12-20T04:19:22;1.60;;;1.33;;
7675;SDS011;3880;51.464;-2.566;2022-12-20T04:21:49;2.73;;;1.30;;
7675;SDS011;3880;51.464;-2.566;2022-12-20T04:24:17;2.73;;;2.47;;
7675;SDS011;3880;51.464;-2.566;2022-12-20T04:26:44;3.80;;;1.60;;
7675;SDS011;3880;51.464;-2.566;2022-12-20T04:29:11;5.90;;;2.43;;
7675;SDS011;3880;51.464;-2.566;2022-12-20T04:31:38;5.03;;;2.07;;
7675;SDS011;3880;51.464;-2.566;2022-12-20T04:34:06;4.43;;;1.83;;
7675;SDS011;3880;51.464;-2.566;2022-12-20T04:36:33;5.37;;;1.70;;
7675;SDS011;3880;51.464;-2.566;2022-12-20T04:39:00;3.60;;;1.73;;
7675;SDS011;3880;51.464;-2.566;2022-12-20T04:41:28;3.43;;;1.60;;
7675;SDS011;3880;51.464;-2.566;2022-12-20T04:43:56;2.83;;;1.60;;
7675;SDS011;3880;51.464;-2.566;2022-12-20T04:46:24;3.43;;;1.90;;
7675;SDS011;3880;51.464;-2.566;2022-12-20T04:48:51;4.17;;;1.90;;
7675;SDS011;3880;51.464;-2.566;2022-12-20T04:51:18;5.30;;;2.20;;
7675;SDS011;3880;51.464;-2.566;2022-12-20T04:53:45;8.93;;;2.27;;
7675;SDS011;3880;51.464;-2.566;2022-12-20T04:56:12;4.63;;;2.00;;
7675;SDS011;3880;51.464;-2.566;2022-12-20T04:58:41;6.30;;;2.33;;
7675;SDS011;3880;51.464;-2.566;2022-12-20T05:01:09;7.37;;;2.40;;
7675;SDS011;3880;51.464;-2.566;2022-12-20T05:03:36;5.03;;;1.77;;
7675;SDS011;3880;51.464;-2.566;2022-12-20T05:06:04;4.77;;;2.10;;
7675;SDS011;3880;51.464;-2.566;2022-12-20T05:08:32;3.13;;;1.90;;
7675;SDS011;3880;51.464;-2.566;2022-12-20T05:10:59;7.60;;;1.90;;
7675;SDS011;3880;51.464;-2.566;2022-12-20T05:13:26;11.97;;;2.10;;
7675;SDS011;3880;51.464;-2.566;2022-12-20T05:15:55;10.23;;;2.57;;
7675;SDS011;3880;51.464;-2.566;2022-12-20T05:18:23;7.87;;;3.50;;
7675;SDS011;3880;51.464;-2.566;2022-12-20T05:20:53;7.87;;;2.83;;
7675;SDS011;3880;51.464;-2.566;2022-12-20T05:23:34;10.33;;;2.53;;
7675;SDS011;3880;51.464;-2.566;2022-12-20T05:26:15;10.43;;;3.00;;
7675;SDS011;3880;51.464;-2.566;2022-12-20T05:28:42;12.93;;;3.13;;
7675;SDS011;3880;51.464;-2.566;2022-12-20T05:31:10;21.43;;;4.37;;
7675;SDS011;3880;51.464;-2.566;2022-12-20T05:33:38;17.13;;;3.10;;
7675;SDS011;3880;51.464;-2.566;2022-12-20T05:36:06;15.63;;;3.80;;
7675;SDS011;3880;51.464;-2.566;2022-12-20T05:38:33;16.73;;;3.50;;
7675;SDS011;3880;51.464;-2.566;2022-12-20T05:41:00;15.97;;;3.43;;
7675;SDS011;3880;51.464;-2.566;2022-12-20T05:43:29;25.03;;;4.43;;
7675;SDS011;3880;51.464;-2.566;2022-12-20T05:45:56;16.13;;;4.20;;
7675;SDS011;3880;51.464;-2.566;2022-12-20T05:48:24;26.57;;;3.90;;
7675;SDS011;3880;51.464;-2.566;2022-12-20T05:50:51;15.57;;;3.77;;
7675;SDS011;3880;51.464;-2.566;2022-12-20T05:53:18;31.87;;;4.30;;
7675;SDS011;3880;51.464;-2.566;2022-12-20T05:55:46;15.27;;;3.87;;
7675;SDS011;3880;51.464;-2.566;2022-12-20T05:58:14;20.03;;;3.10;;
7675;SDS011;3880;51.464;-2.566;2022-12-20T06:00:42;22.70;;;4.23;;
7675;SDS011;3880;51.464;-2.566;2022-12-20T06:03:09;17.27;;;4.37;;
7675;SDS011;3880;51.464;-2.566;2022-12-20T06:05:40;25.57;;;4.83;;
7675;SDS011;3880;51.464;-2.566;2022-12-20T06:08:08;22.17;;;3.43;;
7675;SDS011;3880;51.464;-2.566;2022-12-20T06:10:35;23.70;;;4.33;;
7675;SDS011;3880;51.464;-2.566;2022-12-20T06:13:02;24.30;;;5.03;;
7675;SDS011;3880;51.464;-2.566;2022-12-20T06:15:30;21.67;;;4.03;;
7675;SDS011;3880;51.464;-2.566;2022-12-20T06:17:57;28.80;;;3.17;;
7675;SDS011;3880;51.464;-2.566;2022-12-20T06:20:24;16.83;;;3.23;;
7675;SDS011;3880;51.464;-2.566;2022-12-20T06:22:54;25.23;;;3.03;;
7675;SDS011;3880;51.464;-2.566;2022-12-20T06:25:21;13.07;;;2.70;;
7675;SDS011;3880;51.464;-2.566;2022-12-20T06:27:48;15.00;;;2.83;;
7675;SDS011;3880;51.464;-2.566;2022-12-20T06:30:15;30.03;;;4.87;;
7675;SDS011;3880;51.464;-2.566;2022-12-20T06:32:42;19.50;;;3.53;;
7675;SDS011;3880;51.464;-2.566;2022-12-20T06:35:09;22.73;;;3.93;;
7675;SDS011;3880;51.464;-2.566;2022-12-20T06:37:36;19.13;;;3.30;;
7675;SDS011;3880;51.464;-2.566;2022-12-20T06:40:06;20.93;;;2.90;;
7675;SDS011;3880;51.464;-2.566;2022-12-20T06:42:35;11.90;;;2.60;;
7675;SDS011;3880;51.464;-2.566;2022-12-20T06:45:02;9.90;;;2.60;;
7675;SDS011;3880;51.464;-2.566;2022-12-20T06:47:29;18.17;;;2.87;;
7675;SDS011;3880;51.464;-2.566;2022-12-20T06:49:56;26.40;;;3.73;;
7675;SDS011;3880;51.464;-2.566;2022-12-20T06:52:23;18.97;;;3.20;;
7675;SDS011;3880;51.464;-2.566;2022-12-20T06:54:50;17.53;;;3.13;;
7675;SDS011;3880;51.464;-2.566;2022-12-20T06:57:18;14.63;;;2.80;;
7675;SDS011;3880;51.464;-2.566;2022-12-20T06:59:45;13.93;;;3.77;;
7675;SDS011;3880;51.464;-2.566;2022-12-20T07:02:12;19.43;;;3.67;;
7675;SDS011;3880;51.464;-2.566;2022-12-20T07:04:40;15.90;;;3.57;;
7675;SDS011;3880;51.464;-2.566;2022-12-20T07:07:07;21.13;;;2.97;;
7675;SDS011;3880;51.464;-2.566;2022-12-20T07:09:34;20.00;;;4.03;;
7675;SDS011;3880;51.464;-2.566;2022-12-20T07:12:02;15.20;;;2.67;;
7675;SDS011;3880;51.464;-2.566;2022-12-20T07:14:30;9.50;;;2.67;;
7675;SDS011;3880;51.464;-2.566;2022-12-20T07:16:57;25.60;;;3.93;;
7675;SDS011;3880;51.464;-2.566;2022-12-20T07:19:24;20.30;;;3.13;;
7675;SDS011;3880;51.464;-2.566;2022-12-20T07:21:51;11.00;;;2.97;;
7675;SDS011;3880;51.464;-2.566;2022-12-20T07:24:18;17.93;;;2.70;;
7675;SDS011;3880;51.464;-2.566;2022-12-20T07:26:46;20.97;;;3.47;;
7675;SDS011;3880;51.464;-2.566;2022-12-20T07:29:13;17.77;;;3.53;;
7675;SDS011;3880;51.464;-2.566;2022-12-20T07:31:41;22.97;;;2.97;;
7675;SDS011;3880;51.464;-2.566;2022-12-20T07:34:08;14.50;;;3.63;;
7675;SDS011;3880;51.464;-2.566;2022-12-20T07:36:35;9.07;;;2.60;;
7675;SDS011;3880;51.464;-2.566;2022-12-20T07:39:02;18.03;;;4.50;;
7675;SDS011;3880;51.464;-2.566;2022-12-20T07:41:29;21.97;;;3.97;;
7675;SDS011;3880;51.464;-2.566;2022-12-20T07:43:57;12.63;;;3.30;;
7675;SDS011;3880;51.464;-2.566;2022-12-20T07:46:24;16.50;;;4.27;;
7675;SDS011;3880;51.464;-2.566;2022-12-20T07:48:55;14.57;;;4.43;;
7675;SDS011;3880;51.464;-2.566;2022-12-20T07:51:22;17.57;;;3.10;;
7675;SDS011;3880;51.464;-2.566;2022-12-20T07:53:53;14.17;;;3.40;;
7675;SDS011;3880;51.464;-2.566;2022-12-20T07:56:25;18.90;;;3.93;;
7675;SDS011;3880;51.464;-2.566;2022-12-20T07:58:53;16.77;;;2.70;;
7675;SDS011;3880;51.464;-2.566;2022-12-20T08:01:24;14.97;;;3.97;;
7675;SDS011;3880;51.464;-2.566;2022-12-20T08:03:54;21.80;;;4.03;;
7675;SDS011;3880;51.464;-2.566;2022-12-20T08:06:27;14.20;;;2.60;;
7675;SDS011;3880;51.464;-2.566;2022-12-20T08:08:56;19.97;;;3.83;;
7675;SDS011;3880;51.464;-2.566;2022-12-20T08:11:26;15.53;;;3.43;;
7675;SDS011;3880;51.464;-2.566;2022-12-20T08:13:57;22.60;;;3.93;;
7675;SDS011;3880;51.464;-2.566;2022-12-20T08:16:24;14.93;;;4.40;;
7675;SDS011;3880;51.464;-2.566;2022-12-20T08:18:51;21.20;;;4.80;;
7675;SDS011;3880;51.464;-2.566;2022-12-20T08:21:20;14.73;;;2.87;;
7675;SDS011;3880;51.464;-2.566;2022-12-20T08:23:47;27.23;;;3.73;;
7675;SDS011;3880;51.464;-2.566;2022-12-20T08:26:14;17.40;;;3.97;;
7675;SDS011;3880;51.464;-2.566;2022-12-20T08:28:41;19.67;;;4.63;;
7675;SDS011;3880;51.464;-2.566;2022-12-20T08:31:08;25.13;;;5.00;;
7675;SDS011;3880;51.464;-2.566;2022-12-20T08:33:36;17.97;;;3.70;;
7675;SDS011;3880;51.464;-2.566;2022-12-20T08:36:07;20.87;;;4.90;;
7675;SDS011;3880;51.464;-2.566;2022-12-20T08:38:36;16.97;;;2.93;;
7675;SDS011;3880;51.464;-2.566;2022-12-20T08:41:04;21.07;;;3.80;;
7675;SDS011;3880;51.464;-2.566;2022-12-20T08:43:32;14.87;;;4.50;;
7675;SDS011;3880;51.464;-2.566;2022-12-20T08:46:00;32.17;;;4.87;;
7675;SDS011;3880;51.464;-2.566;2022-12-20T08:48:27;19.67;;;3.80;;
7675;SDS011;3880;51.464;-2.566;2022-12-20T08:50:55;17.20;;;3.53;;
7675;SDS011;3880;51.464;-2.566;2022-12-20T08:53:24;23.53;;;4.17;;
7675;SDS011;3880;51.464;-2.566;2022-12-20T08:55:51;23.40;;;5.03;;
7675;SDS011;3880;51.464;-2.566;2022-12-20T08:58:18;26.77;;;4.43;;
7675;SDS011;3880;51.464;-2.566;2022-12-20T09:00:45;20.17;;;4.63;;
7675;SDS011;3880;51.464;-2.566;2022-12-20T09:03:12;21.70;;;4.80;;
7675;SDS011;3880;51.464;-2.566;2022-12-20T09:05:43;25.40;;;4.80;;
7675;SDS011;3880;51.464;-2.566;2022-12-20T09:08:11;23.70;;;4.00;;
7675;SDS011;3880;51.464;-2.566;2022-12-20T09:10:41;18.37;;;3.67;;
7675;SDS011;3880;51.464;-2.566;2022-12-20T09:13:08;26.60;;;4.07;;
7675;SDS011;3880;51.464;-2.566;2022-12-20T09:15:35;20.03;;;4.27;;
7675;SDS011;3880;51.464;-2.566;2022-12-20T09:18:02;26.87;;;4.47;;
7675;SDS011;3880;51.464;-2.566;2022-12-20T09:20:29;18.03;;;2.90;;
7675;SDS011;3880;51.464;-2.566;2022-12-20T09:22:58;20.70;;;3.77;;
7675;SDS011;3880;51.464;-2.566;2022-12-20T09:25:25;17.10;;;4.13;;
7675;SDS011;3880;51.464;-2.566;2022-12-20T09:27:54;23.93;;;4.83;;
7675;SDS011;3880;51.464;-2.566;2022-12-20T09:30:24;16.77;;;3.83;;
7675;SDS011;3880;51.464;-2.566;2022-12-20T09:32:51;23.13;;;4.40;;
7675;SDS011;3880;51.464;-2.566;2022-12-20T09:35:18;20.03;;;3.77;;
7675;SDS011;3880;51.464;-2.566;2022-12-20T09:37:46;22.23;;;3.77;;
7675;SDS011;3880;51.464;-2.566;2022-12-20T09:40:15;16.70;;;4.87;;
7675;SDS011;3880;51.464;-2.566;2022-12-20T09:42:45;17.53;;;3.87;;
7675;SDS011;3880;51.464;-2.566;2022-12-20T09:45:16;19.27;;;4.77;;
7675;SDS011;3880;51.464;-2.566;2022-12-20T09:47:49;19.67;;;3.33;;
7675;SDS011;3880;51.464;-2.566;2022-12-20T09:50:18;23.90;;;5.80;;
7675;SDS011;3880;51.464;-2.566;2022-12-20T09:52:54;15.20;;;4.67;;
7675;SDS011;3880;51.464;-2.566;2022-12-20T09:55:31;22.40;;;4.50;;
7675;SDS011;3880;51.464;-2.566;2022-12-20T09:58:09;16.23;;;3.80;;
7675;SDS011;3880;51.464;-2.566;2022-12-20T10:00:50;18.73;;;4.10;;
7675;SDS011;3880;51.464;-2.566;2022-12-20T10:03:19;22.60;;;5.63;;
7675;SDS011;3880;51.464;-2.566;2022-12-20T10:05:49;26.97;;;3.97;;
7675;SDS011;3880;51.464;-2.566;2022-12-20T10:08:33;16.83;;;3.77;;
7675;SDS011;3880;51.464;-2.566;2022-12-20T10:11:09;19.53;;;4.37;;
7675;SDS011;3880;51.464;-2.566;2022-12-20T10:13:54;18.17;;;4.50;;
7675;SDS011;3880;51.464;-2.566;2022-12-20T10:16:31;19.20;;;3.97;;
7675;SDS011;3880;51.464;-2.566;2022-12-20T10:19:08;18.37;;;4.07;;
7675;SDS011;3880;51.464;-2.566;2022-12-20T10:21:46;12.80;;;3.23;;
7675;SDS011;3880;51.464;-2.566;2022-12-20T10:24:20;17.13;;;4.03;;
7675;SDS011;3880;51.464;-2.566;2022-12-20T10:26:54;16.73;;;3.53;;
7675;SDS011;3880;51.464;-2.566;2022-12-20T10:29:23;10.03;;;3.40;;
7675;SDS011;3880;51.464;-2.566;2022-12-20T10:31:52;9.40;;;3.40;;
7675;SDS011;3880;51.464;-2.566;2022-12-20T10:34:23;14.53;;;4.90;;
7675;SDS011;3880;51.464;-2.566;2022-12-20T10:36:53;14.90;;;4.23;;
7675;SDS011;3880;51.464;-2.566;2022-12-20T10:39:39;11.30;;;3.43;;
7675;SDS011;3880;51.464;-2.566;2022-12-20T10:42:17;18.23;;;5.63;;
7675;SDS011;3880;51.464;-2.566;2022-12-20T10:44:52;21.37;;;4.07;;
7675;SDS011;3880;51.464;-2.566;2022-12-20T10:47:24;16.17;;;4.60;;
7675;SDS011;3880;51.464;-2.566;2022-12-20T10:52:44;16.13;;;3.90;;
7675;SDS011;3880;51.464;-2.566;2022-12-20T10:55:34;11.73;;;3.50;;
7675;SDS011;3880;51.464;-2.566;2022-12-20T10:58:03;13.00;;;3.03;;
7675;SDS011;3880;51.464;-2.566;2022-12-20T11:00:32;18.20;;;3.63;;
7675;SDS011;3880;51.464;-2.566;2022-12-20T11:03:10;22.47;;;4.80;;
7675;SDS011;3880;51.464;-2.566;2022-12-20T11:05:40;14.00;;;4.50;;
7675;SDS011;3880;51.464;-2.566;2022-12-20T11:08:17;14.20;;;4.00;;
7675;SDS011;3880;51.464;-2.566;2022-12-20T11:10:48;21.20;;;5.00;;
7675;SDS011;3880;51.464;-2.566;2022-12-20T11:13:19;19.53;;;4.13;;
7675;SDS011;3880;51.464;-2.566;2022-12-20T11:15:50;17.10;;;3.97;;
7675;SDS011;3880;51.464;-2.566;2022-12-20T11:18:25;25.47;;;4.50;;
7675;SDS011;3880;51.464;-2.566;2022-12-20T11:21:09;18.20;;;5.10;;
7675;SDS011;3880;51.464;-2.566;2022-12-20T11:23:48;19.60;;;4.47;;
7675;SDS011;3880;51.464;-2.566;2022-12-20T11:26:26;17.10;;;4.53;;
7675;SDS011;3880;51.464;-2.566;2022-12-20T11:29:09;16.23;;;4.60;;
7675;SDS011;3880;51.464;-2.566;2022-12-20T11:31:50;23.00;;;4.47;;
7675;SDS011;3880;51.464;-2.566;2022-12-20T11:34:28;18.13;;;4.60;;
7675;SDS011;3880;51.464;-2.566;2022-12-20T11:37:05;13.93;;;3.83;;
7675;SDS011;3880;51.464;-2.566;2022-12-20T11:39:46;20.77;;;5.87;;
7675;SDS011;3880;51.464;-2.566;2022-12-20T11:42:25;22.53;;;5.90;;
7675;SDS011;3880;51.464;-2.566;2022-12-20T11:45:02;17.17;;;4.43;;
7675;SDS011;3880;51.464;-2.566;2022-12-20T11:50:54;18.70;;;4.30;;
7675;SDS011;3880;51.464;-2.566;2022-12-20T11:53:30;24.23;;;5.37;;
7675;SDS011;3880;51.464;-2.566;2022-12-20T11:56:01;14.57;;;4.03;;
7675;SDS011;3880;51.464;-2.566;2022-12-20T11:58:36;27.53;;;6.47;;
7675;SDS011;3880;51.464;-2.566;2022-12-20T12:01:13;27.30;;;4.67;;
7675;SDS011;3880;51.464;-2.566;2022-12-20T12:03:44;20.93;;;5.67;;
7675;SDS011;3880;51.464;-2.566;2022-12-20T12:06:20;24.80;;;5.27;;
7675;SDS011;3880;51.464;-2.566;2022-12-20T12:08:52;19.17;;;4.40;;
7675;SDS011;3880;51.464;-2.566;2022-12-20T12:11:30;17.80;;;5.00;;
7675;SDS011;3880;51.464;-2.566;2022-12-20T12:13:59;25.37;;;5.27;;
7675;SDS011;3880;51.464;-2.566;2022-12-20T12:16:31;26.07;;;5.47;;
7675;SDS011;3880;51.464;-2.566;2022-12-20T12:19:02;23.17;;;4.23;;
7675;SDS011;3880;51.464;-2.566;2022-12-20T12:21:36;17.40;;;4.90;;
7675;SDS011;3880;51.464;-2.566;2022-12-20T12:24:10;20.50;;;4.73;;
7675;SDS011;3880;51.464;-2.566;2022-12-20T12:26:46;18.53;;;4.23;;
7675;SDS011;3880;51.464;-2.566;2022-12-20T12:29:14;15.10;;;3.67;;
7675;SDS011;3880;51.464;-2.566;2022-12-20T12:31:42;18.93;;;4.40;;
7675;SDS011;3880;51.464;-2.566;2022-12-20T12:34:16;16.40;;;4.03;;
7675;SDS011;3880;51.464;-2.566;2022-12-20T12:40:20;25.43;;;6.30;;
7675;SDS011;3880;51.464;-2.566;2022-12-20T12:43:15;21.10;;;5.87;;
7675;SDS011;3880;51.464;-2.566;2022-12-20T12:46:08;30.43;;;5.67;;
7675;SDS011;3880;51.464;-2.566;2022-12-20T12:48:38;15.33;;;3.67;;
7675;SDS011;3880;51.464;-2.566;2022-12-20T12:51:07;19.77;;;4.57;;
7675;SDS011;3880;51.464;-2.566;2022-12-20T12:53:36;28.63;;;6.23;;
7675;SDS011;3880;51.464;-2.566;2022-12-20T12:56:29;27.20;;;4.53;;
7675;SDS011;3880;51.464;-2.566;2022-12-20T13:02:35;26.13;;;5.17;;
7675;SDS011;3880;51.464;-2.566;2022-12-20T13:05:29;26.47;;;5.07;;
7675;SDS011;3880;51.464;-2.566;2022-12-20T13:07:57;29.60;;;5.57;;
7675;SDS011;3880;51.464;-2.566;2022-12-20T13:13:29;25.83;;;6.43;;
7675;SDS011;3880;51.464;-2.566;2022-12-20T13:16:09;27.63;;;6.00;;
7675;SDS011;3880;51.464;-2.566;2022-12-20T13:18:38;24.50;;;5.13;;
7675;SDS011;3880;51.464;-2.566;2022-12-20T13:21:39;29.77;;;6.30;;
7675;SDS011;3880;51.464;-2.566;2022-12-20T13:27:24;29.43;;;5.73;;
7675;SDS011;3880;51.464;-2.566;2022-12-20T13:35:57;25.97;;;6.07;;
7675;SDS011;3880;51.464;-2.566;2022-12-20T13:41:34;21.93;;;5.07;;
7675;SDS011;3880;51.464;-2.566;2022-12-20T13:44:17;15.67;;;5.10;;
7675;SDS011;3880;51.464;-2.566;2022-12-20T13:47:00;20.00;;;7.27;;
7675;SDS011;3880;51.464;-2.566;2022-12-20T13:49:44;23.03;;;7.00;;
7675;SDS011;3880;51.464;-2.566;2022-12-20T13:52:14;26.70;;;6.03;;
7675;SDS011;3880;51.464;-2.566;2022-12-20T13:54:47;22.33;;;6.10;;
7675;SDS011;3880;51.464;-2.566;2022-12-20T13:57:17;26.13;;;6.37;;
7675;SDS011;3880;51.464;-2.566;2022-12-20T13:59:50;30.30;;;5.50;;
7675;SDS011;3880;51.464;-2.566;2022-12-20T14:02:20;25.50;;;5.57;;
7675;SDS011;3880;51.464;-2.566;2022-12-20T14:04:55;18.00;;;5.23;;
7675;SDS011;3880;51.464;-2.566;2022-12-20T14:07:27;27.13;;;7.33;;
7675;SDS011;3880;51.464;-2.566;2022-12-20T14:09:57;19.73;;;5.43;;
7675;SDS011;3880;51.464;-2.566;2022-12-20T14:12:26;29.90;;;4.90;;
7675;SDS011;3880;51.464;-2.566;2022-12-20T14:14:55;30.30;;;5.37;;
7675;SDS011;3880;51.464;-2.566;2022-12-20T14:17:23;25.47;;;5.77;;
7675;SDS011;3880;51.464;-2.566;2022-12-20T14:20:11;30.10;;;5.80;;
7675;SDS011;3880;51.464;-2.566;2022-12-20T14:22:40;22.60;;;5.47;;
7675;SDS011;3880;51.464;-2.566;2022-12-20T14:25:14;26.63;;;5.40;;
7675;SDS011;3880;51.464;-2.566;2022-12-20T14:27:43;26.27;;;4.87;;
7675;SDS011;3880;51.464;-2.566;2022-12-20T14:30:27;26.00;;;5.20;;
7675;SDS011;3880;51.464;-2.566;2022-12-20T14:32:57;29.00;;;4.93;;
7675;SDS011;3880;51.464;-2.566;2022-12-20T14:35:26;26.07;;;5.87;;
7675;SDS011;3880;51.464;-2.566;2022-12-20T14:37:54;17.20;;;4.70;;
7675;SDS011;3880;51.464;-2.566;2022-12-20T14:40:25;28.33;;;5.57;;
7675;SDS011;3880;51.464;-2.566;2022-12-20T14:42:54;20.70;;;4.93;;
7675;SDS011;3880;51.464;-2.566;2022-12-20T14:45:23;23.53;;;4.87;;
7675;SDS011;3880;51.464;-2.566;2022-12-20T14:47:58;24.47;;;5.80;;
7675;SDS011;3880;51.464;-2.566;2022-12-20T14:50:29;29.00;;;5.13;;
7675;SDS011;3880;51.464;-2.566;2022-12-20T14:52:59;22.90;;;5.90;;
7675;SDS011;3880;51.464;-2.566;2022-12-20T14:55:29;22.23;;;5.10;;
7675;SDS011;3880;51.464;-2.566;2022-12-20T14:58:04;23.33;;;5.30;;
7675;SDS011;3880;51.464;-2.566;2022-12-20T15:00:54;32.67;;;7.00;;
7675;SDS011;3880;51.464;-2.566;2022-12-20T15:03:23;31.13;;;7.20;;
7675;SDS011;3880;51.464;-2.566;2022-12-20T15:05:53;33.20;;;6.50;;
7675;SDS011;3880;51.464;-2.566;2022-12-20T15:08:22;24.93;;;4.83;;
7675;SDS011;3880;51.464;-2.566;2022-12-20T15:10:53;27.20;;;5.17;;
7675;SDS011;3880;51.464;-2.566;2022-12-20T15:13:24;26.13;;;5.83;;
7675;SDS011;3880;51.464;-2.566;2022-12-20T15:15:56;24.20;;;4.90;;
7675;SDS011;3880;51.464;-2.566;2022-12-20T15:18:25;25.10;;;6.13;;
7675;SDS011;3880;51.464;-2.566;2022-12-20T15:20:57;25.23;;;5.43;;
7675;SDS011;3880;51.464;-2.566;2022-12-20T15:23:30;24.00;;;4.90;;
7675;SDS011;3880;51.464;-2.566;2022-12-20T15:25:58;31.40;;;6.40;;
7675;SDS011;3880;51.464;-2.566;2022-12-20T15:28:25;28.97;;;5.90;;
7675;SDS011;3880;51.464;-2.566;2022-12-20T15:30:53;28.00;;;5.80;;
7675;SDS011;3880;51.464;-2.566;2022-12-20T15:33:21;27.87;;;4.87;;
7675;SDS011;3880;51.464;-2.566;2022-12-20T15:35:50;24.87;;;5.63;;
7675;SDS011;3880;51.464;-2.566;2022-12-20T15:38:20;15.10;;;4.83;;
7675;SDS011;3880;51.464;-2.566;2022-12-20T15:40:51;29.40;;;5.40;;
7675;SDS011;3880;51.464;-2.566;2022-12-20T15:43:21;22.33;;;5.53;;